sensor_id;sensor_type;location;lat;lon;timestamp;P1;durP1;ratioP1;P2;durP2;ratioP2
67352;SDS011;54238;52.278;21.056;2023-09-12T00:01:30;27.50;;;18.00;;
67352;SDS011;54238;52.278;21.056;2023-09-12T00:04:04;30.00;;;18.20;;
67352;SDS011;54238;52.278;21.056;2023-09-12T00:06:32;25.30;;;17.00;;
67352;SDS011;54238;52.278;21.056;2023-09-12T00:08:59;24.40;;;17.80;;
67352;SDS011;54238;52.278;21.056;2023-09-12T00:11:26;30.00;;;17.40;;
67352;SDS011;54238;52.278;21.056;2023-09-12T00:13:53;27.40;;;18.80;;
67352;SDS011;54238;52.278;21.056;2023-09-12T00:16:26;26.00;;;18.30;;
67352;SDS011;54238;52.278;21.056;2023-09-12T00:18:55;28.70;;;17.30;;
67352;SDS011;54238;52.278;21.056;2023-09-12T00:21:22;25.70;;;17.50;;
67352;SDS011;54238;52.278;21.056;2023-09-12T00:23:52;24.10;;;18.20;;
67352;SDS011;54238;52.278;21.056;2023-09-12T00:26:19;26.20;;;17.60;;
67352;SDS011;54238;52.278;21.056;2023-09-12T00:28:46;29.30;;;18.60;;
67352;SDS011;54238;52.278;21.056;2023-09-12T00:31:15;25.60;;;17.70;;
67352;SDS011;54238;52.278;21.056;2023-09-12T00:33:42;22.80;;;17.80;;
67352;SDS011;54238;52.278;21.056;2023-09-12T00:36:13;29.20;;;19.70;;
67352;SDS011;54238;52.278;21.056;2023-09-12T00:38:43;27.90;;;20.50;;
67352;SDS011;54238;52.278;21.056;2023-09-12T00:41:12;24.60;;;20.60;;
67352;SDS011;54238;52.278;21.056;2023-09-12T00:43:41;27.40;;;20.90;;
67352;SDS011;54238;52.278;21.056;2023-09-12T00:46:08;26.20;;;19.50;;
67352;SDS011;54238;52.278;21.056;2023-09-12T00:48:38;28.10;;;21.40;;
67352;SDS011;54238;52.278;21.056;2023-09-12T00:51:08;28.70;;;20.80;;
67352;SDS011;54238;52.278;21.056;2023-09-12T00:53:38;28.70;;;21.00;;
67352;SDS011;54238;52.278;21.056;2023-09-12T00:56:09;25.10;;;20.90;;
67352;SDS011;54238;52.278;21.056;2023-09-12T00:58:41;27.90;;;21.40;;
67352;SDS011;54238;52.278;21.056;2023-09-12T01:01:12;26.00;;;21.00;;
67352;SDS011;54238;52.278;21.056;2023-09-12T01:03:41;24.10;;;21.40;;
67352;SDS011;54238;52.278;21.056;2023-09-12T01:06:09;27.70;;;21.40;;
67352;SDS011;54238;52.278;21.056;2023-09-12T01:08:43;26.90;;;21.80;;
67352;SDS011;54238;52.278;21.056;2023-09-12T01:11:13;26.60;;;21.70;;
67352;SDS011;54238;52.278;21.056;2023-09-12T01:13:41;22.70;;;19.50;;
67352;SDS011;54238;52.278;21.056;2023-09-12T01:16:08;32.40;;;20.90;;
67352;SDS011;54238;52.278;21.056;2023-09-12T01:18:40;31.60;;;21.30;;
67352;SDS011;54238;52.278;21.056;2023-09-12T01:21:26;28.70;;;20.30;;
67352;SDS011;54238;52.278;21.056;2023-09-12T01:25:07;31.60;;;21.10;;
67352;SDS011;54238;52.278;21.056;2023-09-12T01:27:32;25.30;;;20.20;;
67352;SDS011;54238;52.278;21.056;2023-09-12T01:30:05;32.60;;;20.70;;
67352;SDS011;54238;52.278;21.056;2023-09-12T01:32:37;27.70;;;20.20;;
67352;SDS011;54238;52.278;21.056;2023-09-12T01:35:08;28.20;;;20.70;;
67352;SDS011;54238;52.278;21.056;2023-09-12T01:37:40;29.30;;;19.40;;
67352;SDS011;54238;52.278;21.056;2023-09-12T01:40:10;24.40;;;19.60;;
67352;SDS011;54238;52.278;21.056;2023-09-12T01:42:42;29.70;;;20.30;;
67352;SDS011;54238;52.278;21.056;2023-09-12T01:45:17;26.80;;;19.50;;
67352;SDS011;54238;52.278;21.056;2023-09-12T01:47:50;29.60;;;19.90;;
67352;SDS011;54238;52.278;21.056;2023-09-12T01:50:17;29.90;;;21.20;;
67352;SDS011;54238;52.278;21.056;2023-09-12T01:52:46;33.40;;;19.60;;
67352;SDS011;54238;52.278;21.056;2023-09-12T01:55:19;25.40;;;20.40;;
67352;SDS011;54238;52.278;21.056;2023-09-12T01:57:47;24.70;;;19.30;;
67352;SDS011;54238;52.278;21.056;2023-09-12T02:00:18;25.70;;;18.40;;
67352;SDS011;54238;52.278;21.056;2023-09-12T02:02:47;25.80;;;19.20;;
67352;SDS011;54238;52.278;21.056;2023-09-12T02:05:21;24.10;;;20.10;;
67352;SDS011;54238;52.278;21.056;2023-09-12T02:07:51;24.70;;;19.70;;
67352;SDS011;54238;52.278;21.056;2023-09-12T02:10:20;26.50;;;20.40;;
67352;SDS011;54238;52.278;21.056;2023-09-12T02:12:50;23.80;;;20.00;;
67352;SDS011;54238;52.278;21.056;2023-09-12T02:15:22;24.90;;;20.20;;
67352;SDS011;54238;52.278;21.056;2023-09-12T02:17:53;25.50;;;19.30;;
67352;SDS011;54238;52.278;21.056;2023-09-12T02:20:25;23.90;;;19.40;;
67352;SDS011;54238;52.278;21.056;2023-09-12T02:22:55;26.20;;;19.70;;
67352;SDS011;54238;52.278;21.056;2023-09-12T02:25:21;24.60;;;20.90;;
67352;SDS011;54238;52.278;21.056;2023-09-12T02:27:51;26.30;;;20.40;;
67352;SDS011;54238;52.278;21.056;2023-09-12T02:30:22;26.70;;;21.60;;
67352;SDS011;54238;52.278;21.056;2023-09-12T02:32:49;29.10;;;20.40;;
67352;SDS011;54238;52.278;21.056;2023-09-12T02:35:17;29.00;;;21.10;;
67352;SDS011;54238;52.278;21.056;2023-09-12T02:37:44;29.30;;;20.90;;
67352;SDS011;54238;52.278;21.056;2023-09-12T02:40:16;23.40;;;20.70;;
67352;SDS011;54238;52.278;21.056;2023-09-12T02:42:46;27.70;;;20.60;;
67352;SDS011;54238;52.278;21.056;2023-09-12T02:45:13;29.30;;;20.60;;
67352;SDS011;54238;52.278;21.056;2023-09-12T02:47:47;28.90;;;20.50;;
67352;SDS011;54238;52.278;21.056;2023-09-12T02:50:14;28.30;;;20.40;;
67352;SDS011;54238;52.278;21.056;2023-09-12T02:52:42;25.00;;;21.20;;
67352;SDS011;54238;52.278;21.056;2023-09-12T02:55:09;26.30;;;20.60;;
67352;SDS011;54238;52.278;21.056;2023-09-12T02:57:39;26.90;;;21.20;;
67352;SDS011;54238;52.278;21.056;2023-09-12T03:00:09;24.80;;;21.20;;
67352;SDS011;54238;52.278;21.056;2023-09-12T03:02:45;27.60;;;20.10;;
67352;SDS011;54238;52.278;21.056;2023-09-12T03:05:17;28.30;;;22.70;;
67352;SDS011;54238;52.278;21.056;2023-09-12T03:07:51;22.60;;;20.20;;
67352;SDS011;54238;52.278;21.056;2023-09-12T03:10:25;25.90;;;19.40;;
67352;SDS011;54238;52.278;21.056;2023-09-12T03:12:54;26.30;;;21.40;;
67352;SDS011;54238;52.278;21.056;2023-09-12T03:15:23;30.70;;;23.70;;
67352;SDS011;54238;52.278;21.056;2023-09-12T03:17:53;26.30;;;21.40;;
67352;SDS011;54238;52.278;21.056;2023-09-12T03:20:23;25.60;;;21.00;;
67352;SDS011;54238;52.278;21.056;2023-09-12T03:22:55;25.60;;;21.70;;
67352;SDS011;54238;52.278;21.056;2023-09-12T03:25:25;28.90;;;20.90;;
67352;SDS011;54238;52.278;21.056;2023-09-12T03:27:52;29.90;;;22.70;;
67352;SDS011;54238;52.278;21.056;2023-09-12T03:30:27;31.30;;;23.50;;
67352;SDS011;54238;52.278;21.056;2023-09-12T03:32:59;40.90;;;23.60;;
67352;SDS011;54238;52.278;21.056;2023-09-12T03:35:30;28.30;;;22.10;;
67352;SDS011;54238;52.278;21.056;2023-09-12T03:40:31;31.10;;;21.90;;
67352;SDS011;54238;52.278;21.056;2023-09-12T03:43:03;28.10;;;21.60;;
67352;SDS011;54238;52.278;21.056;2023-09-12T03:45:37;30.10;;;22.70;;
67352;SDS011;54238;52.278;21.056;2023-09-12T03:48:06;32.80;;;24.80;;
67352;SDS011;54238;52.278;21.056;2023-09-12T03:50:38;33.90;;;26.10;;
67352;SDS011;54238;52.278;21.056;2023-09-12T03:53:05;28.20;;;24.20;;
67352;SDS011;54238;52.278;21.056;2023-09-12T03:55:35;34.30;;;26.40;;
67352;SDS011;54238;52.278;21.056;2023-09-12T03:58:03;31.90;;;24.80;;
67352;SDS011;54238;52.278;21.056;2023-09-12T04:00:34;27.20;;;22.30;;
67352;SDS011;54238;52.278;21.056;2023-09-12T04:03:01;32.20;;;26.60;;
67352;SDS011;54238;52.278;21.056;2023-09-12T04:05:31;31.70;;;27.30;;
67352;SDS011;54238;52.278;21.056;2023-09-12T04:08:00;32.30;;;25.20;;
67352;SDS011;54238;52.278;21.056;2023-09-12T04:10:28;34.60;;;27.20;;
67352;SDS011;54238;52.278;21.056;2023-09-12T04:12:55;42.70;;;27.40;;
67352;SDS011;54238;52.278;21.056;2023-09-12T04:15:24;32.00;;;26.50;;
67352;SDS011;54238;52.278;21.056;2023-09-12T04:17:56;33.00;;;27.50;;
67352;SDS011;54238;52.278;21.056;2023-09-12T04:20:28;37.00;;;25.80;;
67352;SDS011;54238;52.278;21.056;2023-09-12T04:22:56;37.10;;;26.70;;
67352;SDS011;54238;52.278;21.056;2023-09-12T04:25:23;36.60;;;26.90;;
67352;SDS011;54238;52.278;21.056;2023-09-12T04:27:54;33.40;;;27.40;;
67352;SDS011;54238;52.278;21.056;2023-09-12T04:30:21;33.00;;;26.90;;
67352;SDS011;54238;52.278;21.056;2023-09-12T04:32:51;33.10;;;25.30;;
67352;SDS011;54238;52.278;21.056;2023-09-12T04:35:20;35.90;;;25.30;;
67352;SDS011;54238;52.278;21.056;2023-09-12T04:37:51;32.50;;;25.90;;
67352;SDS011;54238;52.278;21.056;2023-09-12T04:40:23;35.80;;;25.00;;
67352;SDS011;54238;52.278;21.056;2023-09-12T04:42:55;34.30;;;25.60;;
67352;SDS011;54238;52.278;21.056;2023-09-12T04:45:22;31.70;;;25.50;;
67352;SDS011;54238;52.278;21.056;2023-09-12T04:47:49;32.90;;;26.00;;
67352;SDS011;54238;52.278;21.056;2023-09-12T04:50:18;36.40;;;28.10;;
67352;SDS011;54238;52.278;21.056;2023-09-12T04:52:50;33.30;;;26.60;;
67352;SDS011;54238;52.278;21.056;2023-09-12T04:55:20;32.00;;;25.90;;
67352;SDS011;54238;52.278;21.056;2023-09-12T04:57:47;31.90;;;26.20;;
67352;SDS011;54238;52.278;21.056;2023-09-12T05:00:14;32.80;;;27.00;;
67352;SDS011;54238;52.278;21.056;2023-09-12T05:02:49;37.50;;;29.30;;
67352;SDS011;54238;52.278;21.056;2023-09-12T05:05:16;36.10;;;25.50;;
67352;SDS011;54238;52.278;21.056;2023-09-12T05:07:48;32.70;;;27.30;;
67352;SDS011;54238;52.278;21.056;2023-09-12T05:10:17;36.80;;;27.20;;
67352;SDS011;54238;52.278;21.056;2023-09-12T05:12:46;31.60;;;26.70;;
67352;SDS011;54238;52.278;21.056;2023-09-12T05:15:18;37.90;;;28.30;;
67352;SDS011;54238;52.278;21.056;2023-09-12T05:17:47;37.40;;;28.00;;
67352;SDS011;54238;52.278;21.056;2023-09-12T05:20:16;35.10;;;28.60;;
67352;SDS011;54238;52.278;21.056;2023-09-12T05:22:46;35.30;;;28.40;;
67352;SDS011;54238;52.278;21.056;2023-09-12T05:25:18;35.90;;;28.80;;
67352;SDS011;54238;52.278;21.056;2023-09-12T05:27:49;33.70;;;27.60;;
67352;SDS011;54238;52.278;21.056;2023-09-12T05:30:21;33.40;;;28.10;;
67352;SDS011;54238;52.278;21.056;2023-09-12T05:32:50;35.30;;;28.70;;
67352;SDS011;54238;52.278;21.056;2023-09-12T05:35:20;41.70;;;26.90;;
67352;SDS011;54238;52.278;21.056;2023-09-12T05:37:50;36.60;;;27.50;;
67352;SDS011;54238;52.278;21.056;2023-09-12T05:40:20;38.30;;;27.50;;
67352;SDS011;54238;52.278;21.056;2023-09-12T05:42:50;35.60;;;26.00;;
67352;SDS011;54238;52.278;21.056;2023-09-12T05:45:17;45.80;;;27.30;;
67352;SDS011;54238;52.278;21.056;2023-09-12T05:47:46;37.40;;;26.40;;
67352;SDS011;54238;52.278;21.056;2023-09-12T05:50:17;43.60;;;27.10;;
67352;SDS011;54238;52.278;21.056;2023-09-12T05:52:44;47.70;;;28.90;;
67352;SDS011;54238;52.278;21.056;2023-09-12T05:55:13;46.60;;;27.30;;
67352;SDS011;54238;52.278;21.056;2023-09-12T05:57:46;37.30;;;27.40;;
67352;SDS011;54238;52.278;21.056;2023-09-12T06:00:19;37.60;;;26.80;;
67352;SDS011;54238;52.278;21.056;2023-09-12T06:02:49;33.20;;;26.30;;
67352;SDS011;54238;52.278;21.056;2023-09-12T06:05:18;34.70;;;25.40;;
67352;SDS011;54238;52.278;21.056;2023-09-12T06:07:51;38.10;;;25.80;;
67352;SDS011;54238;52.278;21.056;2023-09-12T06:10:24;36.00;;;26.30;;
67352;SDS011;54238;52.278;21.056;2023-09-12T06:12:58;35.20;;;27.50;;
67352;SDS011;54238;52.278;21.056;2023-09-12T06:15:25;34.10;;;25.60;;
67352;SDS011;54238;52.278;21.056;2023-09-12T06:17:52;40.40;;;26.20;;
67352;SDS011;54238;52.278;21.056;2023-09-12T06:20:24;33.80;;;25.80;;
67352;SDS011;54238;52.278;21.056;2023-09-12T06:22:51;41.80;;;24.80;;
67352;SDS011;54238;52.278;21.056;2023-09-12T06:27:57;31.00;;;23.40;;
67352;SDS011;54238;52.278;21.056;2023-09-12T06:30:27;34.90;;;25.90;;
67352;SDS011;54238;52.278;21.056;2023-09-12T06:32:54;46.50;;;25.80;;
67352;SDS011;54238;52.278;21.056;2023-09-12T06:35:28;36.70;;;24.40;;
67352;SDS011;54238;52.278;21.056;2023-09-12T06:37:58;34.50;;;22.00;;
67352;SDS011;54238;52.278;21.056;2023-09-12T06:40:25;34.90;;;21.90;;
67352;SDS011;54238;52.278;21.056;2023-09-12T06:43:02;32.10;;;21.20;;
67352;SDS011;54238;52.278;21.056;2023-09-12T06:45:29;29.10;;;21.30;;
67352;SDS011;54238;52.278;21.056;2023-09-12T06:47:59;25.70;;;20.40;;
67352;SDS011;54238;52.278;21.056;2023-09-12T06:50:31;31.60;;;20.70;;
67352;SDS011;54238;52.278;21.056;2023-09-12T06:53:05;29.00;;;21.20;;
67352;SDS011;54238;52.278;21.056;2023-09-12T06:55:37;31.70;;;19.40;;
67352;SDS011;54238;52.278;21.056;2023-09-12T06:58:05;40.20;;;20.80;;
67352;SDS011;54238;52.278;21.056;2023-09-12T07:00:32;36.40;;;21.40;;
67352;SDS011;54238;52.278;21.056;2023-09-12T07:03:02;41.20;;;21.00;;
67352;SDS011;54238;52.278;21.056;2023-09-12T07:05:32;37.70;;;19.60;;
67352;SDS011;54238;52.278;21.056;2023-09-12T07:08:06;32.90;;;18.90;;
67352;SDS011;54238;52.278;21.056;2023-09-12T07:10:36;41.70;;;19.60;;
67352;SDS011;54238;52.278;21.056;2023-09-12T07:13:03;38.00;;;20.30;;
67352;SDS011;54238;52.278;21.056;2023-09-12T07:15:37;33.30;;;19.90;;
67352;SDS011;54238;52.278;21.056;2023-09-12T07:18:10;40.20;;;18.90;;
67352;SDS011;54238;52.278;21.056;2023-09-12T07:20:37;49.70;;;20.80;;
67352;SDS011;54238;52.278;21.056;2023-09-12T07:23:07;55.10;;;19.90;;
67352;SDS011;54238;52.278;21.056;2023-09-12T07:25:38;51.90;;;19.50;;
67352;SDS011;54238;52.278;21.056;2023-09-12T07:28:08;47.90;;;19.60;;
67352;SDS011;54238;52.278;21.056;2023-09-12T07:30:38;34.20;;;18.20;;
67352;SDS011;54238;52.278;21.056;2023-09-12T07:33:10;44.70;;;19.20;;
67352;SDS011;54238;52.278;21.056;2023-09-12T07:35:42;51.00;;;19.00;;
67352;SDS011;54238;52.278;21.056;2023-09-12T07:38:13;27.30;;;18.50;;
67352;SDS011;54238;52.278;21.056;2023-09-12T07:40:44;25.70;;;17.50;;
67352;SDS011;54238;52.278;21.056;2023-09-12T07:43:13;30.10;;;17.70;;
67352;SDS011;54238;52.278;21.056;2023-09-12T07:45:46;38.70;;;16.60;;
67352;SDS011;54238;52.278;21.056;2023-09-12T07:48:18;30.30;;;17.70;;
67352;SDS011;54238;52.278;21.056;2023-09-12T07:50:44;29.00;;;17.20;;
67352;SDS011;54238;52.278;21.056;2023-09-12T07:53:14;30.10;;;16.30;;
67352;SDS011;54238;52.278;21.056;2023-09-12T07:55:44;27.40;;;16.80;;
67352;SDS011;54238;52.278;21.056;2023-09-12T07:58:15;28.30;;;16.70;;
67352;SDS011;54238;52.278;21.056;2023-09-12T08:00:47;31.00;;;16.80;;
67352;SDS011;54238;52.278;21.056;2023-09-12T08:03:22;31.30;;;17.10;;
67352;SDS011;54238;52.278;21.056;2023-09-12T08:05:55;30.70;;;16.70;;
67352;SDS011;54238;52.278;21.056;2023-09-12T08:08:23;27.40;;;16.30;;
67352;SDS011;54238;52.278;21.056;2023-09-12T08:10:50;23.30;;;15.30;;
67352;SDS011;54238;52.278;21.056;2023-09-12T08:13:20;24.70;;;15.20;;
67352;SDS011;54238;52.278;21.056;2023-09-12T08:15:49;19.00;;;14.50;;
67352;SDS011;54238;52.278;21.056;2023-09-12T08:18:16;20.10;;;15.30;;
67352;SDS011;54238;52.278;21.056;2023-09-12T08:20:44;38.10;;;15.30;;
67352;SDS011;54238;52.278;21.056;2023-09-12T08:23:13;22.50;;;14.20;;
67352;SDS011;54238;52.278;21.056;2023-09-12T08:25:45;25.30;;;13.70;;
67352;SDS011;54238;52.278;21.056;2023-09-12T08:28:15;28.80;;;13.60;;
67352;SDS011;54238;52.278;21.056;2023-09-12T08:30:47;23.60;;;13.50;;
67352;SDS011;54238;52.278;21.056;2023-09-12T08:33:17;20.30;;;13.80;;
67352;SDS011;54238;52.278;21.056;2023-09-12T08:35:46;20.90;;;12.40;;
67352;SDS011;54238;52.278;21.056;2023-09-12T08:38:13;22.30;;;13.00;;
67352;SDS011;54238;52.278;21.056;2023-09-12T08:40:42;22.30;;;14.00;;
67352;SDS011;54238;52.278;21.056;2023-09-12T08:43:20;17.20;;;13.40;;
67352;SDS011;54238;52.278;21.056;2023-09-12T08:45:52;21.00;;;12.90;;
67352;SDS011;54238;52.278;21.056;2023-09-12T08:48:20;23.30;;;12.50;;
67352;SDS011;54238;52.278;21.056;2023-09-12T08:50:55;22.20;;;12.90;;
67352;SDS011;54238;52.278;21.056;2023-09-12T08:53:23;23.60;;;13.40;;
67352;SDS011;54238;52.278;21.056;2023-09-12T08:55:55;19.10;;;12.60;;
67352;SDS011;54238;52.278;21.056;2023-09-12T08:58:25;22.20;;;12.90;;
67352;SDS011;54238;52.278;21.056;2023-09-12T09:00:59;24.20;;;12.00;;
67352;SDS011;54238;52.278;21.056;2023-09-12T09:03:31;26.60;;;13.50;;
67352;SDS011;54238;52.278;21.056;2023-09-12T09:05:59;19.40;;;13.70;;
67352;SDS011;54238;52.278;21.056;2023-09-12T09:08:33;24.60;;;12.50;;
67352;SDS011;54238;52.278;21.056;2023-09-12T09:11:05;24.70;;;12.70;;
67352;SDS011;54238;52.278;21.056;2023-09-12T09:13:35;21.70;;;12.50;;
67352;SDS011;54238;52.278;21.056;2023-09-12T09:16:12;16.60;;;12.30;;
67352;SDS011;54238;52.278;21.056;2023-09-12T09:21:32;18.10;;;13.20;;
67352;SDS011;54238;52.278;21.056;2023-09-12T09:24:07;19.90;;;11.70;;
67352;SDS011;54238;52.278;21.056;2023-09-12T09:26:55;14.10;;;12.20;;
67352;SDS011;54238;52.278;21.056;2023-09-12T09:29:29;15.40;;;11.20;;
67352;SDS011;54238;52.278;21.056;2023-09-12T09:32:00;14.70;;;11.20;;
67352;SDS011;54238;52.278;21.056;2023-09-12T09:34:32;19.60;;;12.30;;
67352;SDS011;54238;52.278;21.056;2023-09-12T09:37:02;25.20;;;12.60;;
67352;SDS011;54238;52.278;21.056;2023-09-12T09:39:36;22.70;;;11.70;;
67352;SDS011;54238;52.278;21.056;2023-09-12T09:42:10;22.10;;;9.50;;
67352;SDS011;54238;52.278;21.056;2023-09-12T09:44:38;21.40;;;11.40;;
67352;SDS011;54238;52.278;21.056;2023-09-12T09:47:12;26.50;;;11.10;;
67352;SDS011;54238;52.278;21.056;2023-09-12T09:49:45;14.00;;;8.80;;
67352;SDS011;54238;52.278;21.056;2023-09-12T09:52:13;12.30;;;9.00;;
67352;SDS011;54238;52.278;21.056;2023-09-12T09:54:44;13.10;;;8.80;;
67352;SDS011;54238;52.278;21.056;2023-09-12T09:57:13;10.00;;;9.00;;
67352;SDS011;54238;52.278;21.056;2023-09-12T09:59:42;15.60;;;9.40;;
67352;SDS011;54238;52.278;21.056;2023-09-12T10:02:20;13.80;;;9.40;;
67352;SDS011;54238;52.278;21.056;2023-09-12T10:04:53;14.40;;;9.90;;
67352;SDS011;54238;52.278;21.056;2023-09-12T10:07:21;15.60;;;9.60;;
67352;SDS011;54238;52.278;21.056;2023-09-12T10:09:51;16.30;;;9.30;;
67352;SDS011;54238;52.278;21.056;2023-09-12T10:12:18;10.30;;;8.60;;
67352;SDS011;54238;52.278;21.056;2023-09-12T10:14:46;14.80;;;8.90;;
67352;SDS011;54238;52.278;21.056;2023-09-12T10:17:19;12.90;;;9.10;;
67352;SDS011;54238;52.278;21.056;2023-09-12T10:19:55;13.00;;;9.40;;
67352;SDS011;54238;52.278;21.056;2023-09-12T10:22:39;11.60;;;8.40;;
67352;SDS011;54238;52.278;21.056;2023-09-12T10:25:12;9.80;;;7.80;;
67352;SDS011;54238;52.278;21.056;2023-09-12T10:27:40;16.40;;;8.40;;
67352;SDS011;54238;52.278;21.056;2023-09-12T10:30:13;9.50;;;8.30;;
67352;SDS011;54238;52.278;21.056;2023-09-12T10:32:49;13.80;;;7.90;;
67352;SDS011;54238;52.278;21.056;2023-09-12T10:35:19;12.70;;;8.60;;
67352;SDS011;54238;52.278;21.056;2023-09-12T10:37:48;9.50;;;7.70;;
67352;SDS011;54238;52.278;21.056;2023-09-12T10:40:26;12.20;;;8.70;;
67352;SDS011;54238;52.278;21.056;2023-09-12T10:42:56;10.20;;;7.40;;
67352;SDS011;54238;52.278;21.056;2023-09-12T10:45:31;11.50;;;7.80;;
67352;SDS011;54238;52.278;21.056;2023-09-12T10:48:02;11.10;;;8.10;;
67352;SDS011;54238;52.278;21.056;2023-09-12T10:50:37;9.90;;;8.50;;
67352;SDS011;54238;52.278;21.056;2023-09-12T10:53:12;11.00;;;7.70;;
67352;SDS011;54238;52.278;21.056;2023-09-12T10:55:41;12.50;;;8.20;;
67352;SDS011;54238;52.278;21.056;2023-09-12T10:58:11;11.10;;;8.10;;
67352;SDS011;54238;52.278;21.056;2023-09-12T11:00:41;10.00;;;7.50;;
67352;SDS011;54238;52.278;21.056;2023-09-12T11:05:55;11.90;;;8.60;;
67352;SDS011;54238;52.278;21.056;2023-09-12T11:08:23;9.60;;;8.00;;
67352;SDS011;54238;52.278;21.056;2023-09-12T11:11:19;13.60;;;8.70;;
67352;SDS011;54238;52.278;21.056;2023-09-12T11:16:31;10.90;;;8.40;;
67352;SDS011;54238;52.278;21.056;2023-09-12T11:19:12;15.00;;;8.70;;
67352;SDS011;54238;52.278;21.056;2023-09-12T11:21:50;10.20;;;7.80;;
67352;SDS011;54238;52.278;21.056;2023-09-12T11:24:21;9.70;;;7.90;;
67352;SDS011;54238;52.278;21.056;2023-09-12T11:26:55;10.50;;;7.70;;
67352;SDS011;54238;52.278;21.056;2023-09-12T11:29:38;10.00;;;8.80;;
67352;SDS011;54238;52.278;21.056;2023-09-12T11:32:07;10.00;;;8.50;;
67352;SDS011;54238;52.278;21.056;2023-09-12T11:34:41;10.10;;;8.30;;
67352;SDS011;54238;52.278;21.056;2023-09-12T11:37:22;20.20;;;17.10;;
67352;SDS011;54238;52.278;21.056;2023-09-12T11:39:53;12.50;;;8.80;;
67352;SDS011;54238;52.278;21.056;2023-09-12T11:42:24;9.40;;;8.30;;
67352;SDS011;54238;52.278;21.056;2023-09-12T11:44:57;9.00;;;8.10;;
67352;SDS011;54238;52.278;21.056;2023-09-12T11:47:30;16.70;;;9.30;;
67352;SDS011;54238;52.278;21.056;2023-09-12T11:49:57;10.60;;;8.10;;
67352;SDS011;54238;52.278;21.056;2023-09-12T11:52:25;10.50;;;8.70;;
67352;SDS011;54238;52.278;21.056;2023-09-12T11:54:54;9.50;;;8.00;;
67352;SDS011;54238;52.278;21.056;2023-09-12T11:57:24;10.80;;;8.30;;
67352;SDS011;54238;52.278;21.056;2023-09-12T11:59:51;8.60;;;7.70;;
67352;SDS011;54238;52.278;21.056;2023-09-12T12:02:21;9.90;;;7.90;;
67352;SDS011;54238;52.278;21.056;2023-09-12T12:04:53;9.90;;;7.90;;
67352;SDS011;54238;52.278;21.056;2023-09-12T12:07:29;9.60;;;8.20;;
67352;SDS011;54238;52.278;21.056;2023-09-12T12:09:59;13.20;;;8.20;;
67352;SDS011;54238;52.278;21.056;2023-09-12T12:12:29;9.40;;;8.00;;
67352;SDS011;54238;52.278;21.056;2023-09-12T12:15:01;9.60;;;8.40;;
67352;SDS011;54238;52.278;21.056;2023-09-12T12:17:29;13.90;;;8.30;;
67352;SDS011;54238;52.278;21.056;2023-09-12T12:19:58;8.40;;;7.60;;
67352;SDS011;54238;52.278;21.056;2023-09-12T12:22:36;11.30;;;8.40;;
67352;SDS011;54238;52.278;21.056;2023-09-12T12:25:08;9.30;;;7.90;;
67352;SDS011;54238;52.278;21.056;2023-09-12T12:27:38;13.20;;;8.90;;
67352;SDS011;54238;52.278;21.056;2023-09-12T12:30:13;9.60;;;7.90;;
67352;SDS011;54238;52.278;21.056;2023-09-12T12:32:41;9.20;;;8.20;;
67352;SDS011;54238;52.278;21.056;2023-09-12T12:35:17;12.10;;;8.70;;
67352;SDS011;54238;52.278;21.056;2023-09-12T12:37:45;9.30;;;8.40;;
67352;SDS011;54238;52.278;21.056;2023-09-12T12:40:17;8.90;;;7.90;;
67352;SDS011;54238;52.278;21.056;2023-09-12T12:42:45;11.90;;;8.10;;
67352;SDS011;54238;52.278;21.056;2023-09-12T12:45:19;11.40;;;8.20;;
67352;SDS011;54238;52.278;21.056;2023-09-12T12:47:59;9.20;;;8.20;;
67352;SDS011;54238;52.278;21.056;2023-09-12T12:50:35;8.80;;;7.90;;
67352;SDS011;54238;52.278;21.056;2023-09-12T12:53:05;10.50;;;8.50;;
67352;SDS011;54238;52.278;21.056;2023-09-12T12:55:37;13.10;;;8.50;;
67352;SDS011;54238;52.278;21.056;2023-09-12T12:58:07;10.90;;;8.40;;
67352;SDS011;54238;52.278;21.056;2023-09-12T13:00:39;9.30;;;8.40;;
67352;SDS011;54238;52.278;21.056;2023-09-12T13:03:08;10.00;;;8.70;;
67352;SDS011;54238;52.278;21.056;2023-09-12T13:05:40;8.70;;;7.90;;
67352;SDS011;54238;52.278;21.056;2023-09-12T13:08:09;8.20;;;7.50;;
67352;SDS011;54238;52.278;21.056;2023-09-12T13:10:36;11.50;;;8.60;;
67352;SDS011;54238;52.278;21.056;2023-09-12T13:13:06;10.80;;;7.90;;
67352;SDS011;54238;52.278;21.056;2023-09-12T13:15:33;12.50;;;8.40;;
67352;SDS011;54238;52.278;21.056;2023-09-12T13:18:00;10.30;;;8.70;;
67352;SDS011;54238;52.278;21.056;2023-09-12T13:20:29;10.10;;;7.80;;
67352;SDS011;54238;52.278;21.056;2023-09-12T13:22:56;9.50;;;8.60;;
67352;SDS011;54238;52.278;21.056;2023-09-12T13:25:26;10.40;;;8.70;;
67352;SDS011;54238;52.278;21.056;2023-09-12T13:27:53;10.20;;;8.70;;
67352;SDS011;54238;52.278;21.056;2023-09-12T13:30:22;10.70;;;9.20;;
67352;SDS011;54238;52.278;21.056;2023-09-12T13:32:52;10.50;;;9.20;;
67352;SDS011;54238;52.278;21.056;2023-09-12T13:35:22;12.60;;;9.00;;
67352;SDS011;54238;52.278;21.056;2023-09-12T13:37:51;10.60;;;9.00;;
67352;SDS011;54238;52.278;21.056;2023-09-12T13:40:21;11.40;;;9.10;;
67352;SDS011;54238;52.278;21.056;2023-09-12T13:42:53;13.00;;;9.10;;
67352;SDS011;54238;52.278;21.056;2023-09-12T13:45:20;10.20;;;9.00;;
67352;SDS011;54238;52.278;21.056;2023-09-12T13:47:49;13.10;;;9.10;;
67352;SDS011;54238;52.278;21.056;2023-09-12T13:50:21;16.90;;;9.50;;
67352;SDS011;54238;52.278;21.056;2023-09-12T13:52:52;12.50;;;9.30;;
67352;SDS011;54238;52.278;21.056;2023-09-12T13:55:22;11.70;;;9.30;;
67352;SDS011;54238;52.278;21.056;2023-09-12T13:57:54;14.00;;;10.10;;
67352;SDS011;54238;52.278;21.056;2023-09-12T14:00:28;11.40;;;10.30;;
67352;SDS011;54238;52.278;21.056;2023-09-12T14:02:55;14.50;;;10.20;;
67352;SDS011;54238;52.278;21.056;2023-09-12T14:05:22;10.40;;;9.40;;
67352;SDS011;54238;52.278;21.056;2023-09-12T14:07:53;11.20;;;10.10;;
67352;SDS011;54238;52.278;21.056;2023-09-12T14:10:20;10.50;;;9.50;;
67352;SDS011;54238;52.278;21.056;2023-09-12T14:12:54;15.40;;;9.60;;
67352;SDS011;54238;52.278;21.056;2023-09-12T14:15:26;13.50;;;9.70;;
67352;SDS011;54238;52.278;21.056;2023-09-12T14:17:56;10.60;;;9.50;;
67352;SDS011;54238;52.278;21.056;2023-09-12T14:20:25;12.80;;;10.00;;
67352;SDS011;54238;52.278;21.056;2023-09-12T14:22:58;10.80;;;9.60;;
67352;SDS011;54238;52.278;21.056;2023-09-12T14:25:25;11.10;;;10.00;;
67352;SDS011;54238;52.278;21.056;2023-09-12T14:27:54;15.10;;;10.10;;
67352;SDS011;54238;52.278;21.056;2023-09-12T14:30:24;12.20;;;10.50;;
67352;SDS011;54238;52.278;21.056;2023-09-12T14:33:02;13.00;;;10.20;;
67352;SDS011;54238;52.278;21.056;2023-09-12T14:35:32;12.50;;;10.30;;
67352;SDS011;54238;52.278;21.056;2023-09-12T14:38:04;12.50;;;9.60;;
67352;SDS011;54238;52.278;21.056;2023-09-12T14:40:31;11.60;;;9.70;;
67352;SDS011;54238;52.278;21.056;2023-09-12T14:43:01;12.90;;;10.10;;
67352;SDS011;54238;52.278;21.056;2023-09-12T14:45:29;14.80;;;9.70;;
67352;SDS011;54238;52.278;21.056;2023-09-12T14:47:57;14.40;;;9.50;;